Main page
METAR-TAF:

METAR-TAF

Airports :

Brussels Airport. Zaventem

Brussels, Belgium

latitude: 50-54N, longitude: 004-32E, elevation: 55 m

Current weather observation

The report was made 35 minutes ago, at 06:50 UTC
Wind 3 kt from the South/Southeast
Temperature -4°C
Humidity 93%
Pressure 1037 hPa
Visibility 10 km or more
no clouds below 1500 m and no cumulonimbus

METAR: EBBR 080650Z 16003KT CAVOK M04/M05 Q1037 NOSIG

Time: 08:25 (07:25 UTC)

Forecast

The report was made 2 hours and 25 minutes ago, at 05:00 UTC
Forecast valid from 08 at 06 UTC to 09 at 12 UTC
Wind 3 kt from the East/Southeast
Visibility 10 km or more
no clouds below 1500 m and no cumulonimbus

TAF: EBBR 080500Z 0806/0912 12003KT CAVOK

Weather observations and forecasts of more than 4000 airports (METAR and TAF reports).

The available stations are represented by yellow and red dots on the map.

Hover mouse over dot to see the name of the station.

Then click to see weather observations and forecasts.

To change the map : click on the green buttons with a black cross to zoom in, on the green button with a dash to zoom out, or on the green arrows for adjacent maps.


METAR-TAF: